Time;durP1;ratioP1;P1;durP2;ratioP2;P2;SDS_P1;SDS_P2;PMS_P1;PMS_P2;Temp;Humidity;BMP_temperature;BMP_pressure;BME280_temperature;BME280_humidity;BME280_pressure;Samples;Min_cycle;Max_cycle;Signal;HPM_P1;HPM_P2
2024/04/14 00:04:20;;;;;;;3.80;2.27;;;;;;;19.18;59.14;101791.53;11340262;26;20540;-57
2024/04/14 00:09:21;;;;;;;2.93;1.80;;;;;;;19.17;59.04;101798.81;11345502;26;19998;-57
2024/04/14 00:14:23;;;;;;;5.28;1.98;;;;;;;19.16;59.15;101802.56;11275328;26;20277;-57
2024/04/14 00:19:23;;;;;;;3.17;1.73;;;;;;;19.16;58.75;101797.19;11260552;26;20023;-57
2024/04/14 00:24:23;;;;;;;2.47;1.43;;;;;;;19.16;58.77;101797.19;11268968;26;19998;-57
2024/04/14 00:29:24;;;;;;;2.67;2.07;;;;;;;19.15;59.09;101795.59;11286638;26;20376;-57
2024/04/14 00:34:24;;;;;;;4.10;2.05;;;;;;;19.14;58.92;101788.59;11297482;26;20220;-57
2024/04/14 00:39:25;;;;;;;3.33;2.00;;;;;;;19.14;59.00;101798.56;11276446;26;20124;-58
2024/04/14 00:44:25;;;;;;;2.30;1.50;;;;;;;19.13;58.67;101792.38;11277449;26;20005;-58
2024/04/14 00:49:25;;;;;;;3.57;2.57;;;;;;;19.13;58.93;101795.06;11276282;26;19998;-57
2024/04/14 00:54:26;;;;;;;2.13;1.88;;;;;;;19.12;59.29;101803.41;11276883;26;20260;-57
2024/04/14 00:59:26;;;;;;;3.03;1.80;;;;;;;19.12;58.64;101811.47;11275843;26;20011;-57
2024/04/14 01:04:27;;;;;;;3.30;2.05;;;;;;;19.12;58.48;101824.91;11332703;26;20002;-58
2024/04/14 01:09:27;;;;;;;3.13;1.90;;;;;;;19.11;58.52;101834.06;11349374;26;20005;-57
2024/04/14 01:14:27;;;;;;;4.30;1.60;;;;;;;19.11;58.53;101828.69;11279837;26;20715;-57
2024/04/14 01:19:28;;;;;;;3.30;1.97;;;;;;;19.10;59.05;101835.13;11275830;26;20269;-57
2024/04/14 01:24:28;;;;;;;3.47;1.60;;;;;;;19.10;58.59;101838.63;11276179;26;20233;-57
2024/04/14 01:29:28;;;;;;;3.80;1.63;;;;;;;19.08;58.78;101839.97;11282939;26;21128;-57
2024/04/14 01:34:28;;;;;;;4.07;2.67;;;;;;;19.08;58.38;101843.47;11287783;26;20224;-57
2024/04/14 01:39:29;;;;;;;2.97;1.67;;;;;;;19.08;58.78;101856.91;11275228;26;20560;-58
2024/04/14 01:44:29;;;;;;;3.77;1.90;;;;;;;19.06;58.43;101859.06;11224951;26;20220;-58
2024/04/14 01:49:29;;;;;;;3.83;1.80;;;;;;;19.06;58.42;101851.00;11273774;26;20256;-58
2024/04/14 01:54:30;;;;;;;2.07;1.60;;;;;;;19.06;58.43;101852.88;11275037;26;20217;-58
2024/04/14 01:59:31;;;;;;;4.37;2.10;;;;;;;19.05;58.35;101860.13;11274656;26;20002;-57
2024/04/14 02:04:32;;;;;;;3.90;1.73;;;;;;;19.04;58.33;101871.94;11274766;26;20607;-57
2024/04/14 02:09:33;;;;;;;2.95;1.70;;;;;;;19.04;58.35;101860.41;11273884;26;19995;-57
2024/04/14 02:14:33;;;;;;;3.30;1.57;;;;;;;19.03;58.75;101873.03;11265557;26;20006;-57
2024/04/14 02:19:33;;;;;;;2.27;1.63;;;;;;;19.03;58.06;101870.34;11273690;26;20228;-57
2024/04/14 02:24:36;;;;;;;2.93;2.00;;;;;;;19.01;58.42;101867.13;11272449;26;20727;-56
2024/04/14 02:29:36;;;;;;;3.65;1.60;;;;;;;19.01;58.61;101888.63;11296738;26;20516;-58
2024/04/14 02:34:36;;;;;;;5.22;1.95;;;;;;;18.99;58.38;101894.28;11317936;26;19994;-57
2024/04/14 02:39:37;;;;;;;3.20;1.70;;;;;;;18.98;58.17;101887.28;11273585;26;20010;-57
2024/04/14 02:44:37;;;;;;;4.22;2.28;;;;;;;18.99;58.55;101893.47;11273827;26;20331;-58
2024/04/14 02:49:37;;;;;;;6.60;3.00;;;;;;;18.98;58.12;101891.88;11273296;26;20044;-57
2024/04/14 02:54:38;;;;;;;2.37;1.53;;;;;;;18.96;58.75;101902.88;11273259;26;20217;-57
2024/04/14 02:59:38;;;;;;;3.37;1.70;;;;;;;18.96;58.80;101904.78;11272366;26;20738;-56
2024/04/14 03:04:38;;;;;;;5.13;2.10;;;;;;;18.96;58.33;101916.31;11332928;26;20260;-58
2024/04/14 03:09:39;;;;;;;2.17;1.50;;;;;;;18.95;58.65;101911.22;11347964;26;20212;-57
2024/04/14 03:14:39;;;;;;;3.03;1.47;;;;;;;18.93;58.60;101914.16;11272648;26;20220;-58
2024/04/14 03:19:39;;;;;;;2.17;1.52;;;;;;;18.95;58.06;101932.72;11272610;26;20213;-57
2024/04/14 03:24:40;;;;;;;3.17;1.73;;;;;;;18.92;58.14;101923.28;11272697;26;20007;-58
2024/04/14 03:29:40;;;;;;;2.50;1.30;;;;;;;18.92;58.74;101923.28;11293917;26;20002;-58
2024/04/14 03:34:42;;;;;;;3.25;1.70;;;;;;;18.91;58.37;101928.94;11327997;26;20259;-58
2024/04/14 03:39:42;;;;;;;2.70;1.55;;;;;;;18.90;58.01;101933.50;11253085;26;20005;-57
2024/04/14 03:44:43;;;;;;;2.97;1.43;;;;;;;18.90;58.31;101938.88;11271436;26;20449;-58
2024/04/14 03:49:43;;;;;;;5.37;1.67;;;;;;;18.89;58.48;101939.97;11271941;26;20265;-57
2024/04/14 03:54:43;;;;;;;3.50;1.80;;;;;;;18.87;58.22;101947.50;11271018;26;20540;-58
2024/04/14 03:59:48;;;;;;;3.87;1.63;;;;;;;18.88;58.46;101945.59;11270821;26;20212;-57
2024/04/14 04:04:49;;;;;;;2.75;1.45;;;;;;;18.87;57.84;101946.69;11334442;26;20231;-57
2024/04/14 04:09:52;;;;;;;2.27;1.40;;;;;;;18.86;57.87;101955.81;11346600;26;19999;-57
2024/04/14 04:14:52;;;;;;;4.60;1.70;;;;;;;18.85;57.69;101951.53;11277455;26;20232;-57
2024/04/14 04:19:53;;;;;;;2.93;1.50;;;;;;;18.84;57.74;101950.72;11236838;26;20477;-58
2024/04/14 04:24:53;;;;;;;4.07;1.50;;;;;;;18.83;58.30;101959.84;11231586;26;20283;-57
2024/04/14 04:29:53;;;;;;;3.17;1.90;;;;;;;18.83;58.39;101967.91;11239722;26;20343;-57
2024/04/14 04:34:54;;;;;;;2.97;1.57;;;;;;;18.82;58.22;101960.91;11226323;26;20265;-58
2024/04/14 04:39:55;;;;;;;2.35;1.25;;;;;;;18.81;57.84;101959.28;11228167;26;20221;-58
2024/04/14 04:44:55;;;;;;;3.53;1.73;;;;;;;18.79;58.30;101972.19;11229202;26;20077;-58
2024/04/14 04:49:55;;;;;;;2.53;1.40;;;;;;;18.80;58.54;101989.94;11231030;26;20071;-58
2024/04/14 04:54:56;;;;;;;3.90;1.50;;;;;;;18.77;57.50;101993.16;11276404;26;21023;-57
2024/04/14 04:59:56;;;;;;;2.60;1.20;;;;;;;18.78;58.37;101999.34;11252597;26;20007;-58
2024/04/14 05:04:56;;;;;;;2.57;1.10;;;;;;;18.77;57.91;101987.78;11246447;26;20253;-58
2024/04/14 05:09:57;;;;;;;2.67;1.10;;;;;;;18.74;57.82;101988.31;11263182;26;20216;-58
2024/04/14 05:14:57;;;;;;;2.73;1.30;;;;;;;18.76;58.19;101990.72;11336844;26;20215;-48
2024/04/14 05:19:57;;;;;;;7.00;2.33;;;;;;;18.76;58.41;102004.16;11325974;26;20299;-61
2024/04/14 05:24:58;;;;;;;7.87;1.83;;;;;;;18.75;58.85;102006.03;11275943;26;19990;-61
2024/04/14 05:29:58;;;;;;;7.23;2.47;;;;;;;18.76;58.74;102004.16;11270402;26;20267;-60
2024/04/14 05:34:58;;;;;;;8.48;2.05;;;;;;;18.78;58.34;102010.06;11301201;26;20244;-60
2024/04/14 05:39:59;;;;;;;3.90;1.77;;;;;;;18.78;58.75;102010.88;11230429;26;19991;-60
2024/04/14 05:44:59;;;;;;;9.60;2.17;;;;;;;18.75;58.81;102011.41;11261752;26;20028;-61
2024/04/14 05:49:59;;;;;;;10.00;2.60;;;;;;;18.76;59.09;102015.72;11275444;26;19995;-63
2024/04/14 05:55:00;;;;;;;13.27;2.57;;;;;;;18.76;59.25;102020.28;11265862;26;20257;-62
2024/04/14 06:00:00;;;;;;;23.20;3.50;;;;;;;18.74;59.05;102038.56;11314617;26;20596;-60
2024/04/14 06:05:00;;;;;;;16.30;3.72;;;;;;;18.76;59.38;102039.09;11342579;26;19998;-62
2024/04/14 06:10:02;;;;;;;13.73;2.73;;;;;;;18.76;59.48;102039.91;11344775;26;20006;-61
2024/04/14 06:15:02;;;;;;;14.02;4.60;;;;;;;18.74;59.14;102038.56;11375975;25;20226;-59
2024/04/14 06:20:03;;;;;;;13.27;3.30;;;;;;;18.74;59.20;102043.94;11402274;26;20070;-62
2024/04/14 06:25:04;;;;;;;13.75;3.22;;;;;;;18.73;59.37;102048.50;11373512;25;20074;-62
2024/04/14 06:30:05;;;;;;;11.73;3.38;;;;;;;18.73;58.82;102036.94;11304605;26;20010;-62
2024/04/14 06:35:05;;;;;;;8.52;2.50;;;;;;;18.72;59.14;102046.88;11329327;26;20028;-61
2024/04/14 06:40:07;;;;;;;8.13;2.60;;;;;;;18.69;57.56;102058.94;11331789;26;20087;-61
2024/04/14 06:45:07;;;;;;;13.95;3.90;;;;;;;18.67;56.79;102047.66;11338246;26;19998;-61
2024/04/14 06:50:08;;;;;;;10.37;3.00;;;;;;;18.68;57.06;102054.66;11292023;26;20006;-60
2024/04/14 06:55:12;;;;;;;12.23;3.08;;;;;;;18.65;56.66;102057.88;11290345;26;21722;-61
2024/04/14 07:00:13;;;;;;;13.48;2.97;;;;;;;18.64;56.78;102067.00;11317434;26;19998;-61
2024/04/14 07:05:13;;;;;;;15.40;3.63;;;;;;;18.64;56.76;102067.00;11317016;26;19995;-61
2024/04/14 07:10:13;;;;;;;17.92;4.00;;;;;;;18.63;56.80;102069.91;11346826;26;19994;-60
2024/04/14 07:15:14;;;;;;;17.63;4.07;;;;;;;18.62;57.05;102074.50;11306635;26;20003;-60
2024/04/14 07:20:14;;;;;;;11.13;3.03;;;;;;;18.64;57.06;102082.31;11424345;26;20889;-60
2024/04/14 07:25:15;;;;;;;15.73;2.97;;;;;;;18.63;57.67;102073.41;11423321;26;20008;-60
2024/04/14 07:30:15;;;;;;;13.90;2.45;;;;;;;18.63;57.86;102081.47;11444330;25;20008;-60
2024/04/14 07:35:15;;;;;;;15.43;3.38;;;;;;;18.63;57.65;102080.66;11395474;25;20015;-60
2024/04/14 07:40:16;;;;;;;8.77;2.63;;;;;;;18.62;57.24;102085.22;11390926;26;20456;-60
2024/04/14 07:45:16;;;;;;;9.82;2.97;;;;;;;18.61;57.54;102072.06;11422835;26;20226;-60
2024/04/14 07:50:16;;;;;;;14.53;2.73;;;;;;;18.61;57.83;102088.19;11387308;26;20001;-60
2024/04/14 07:55:17;;;;;;;7.53;2.20;;;;;;;18.59;57.33;102091.13;11388530;26;20279;-60
2024/04/14 08:00:17;;;;;;;11.30;2.72;;;;;;;18.58;57.77;102078.75;11428988;25;20725;-60
2024/04/14 08:05:17;;;;;;;11.45;2.85;;;;;;;18.58;57.13;102102.13;11422813;26;19997;-60
2024/04/14 08:10:18;;;;;;;8.70;2.42;;;;;;;18.58;57.33;102099.44;11423240;26;19998;-60
2024/04/14 08:15:18;;;;;;;13.05;3.60;;;;;;;18.58;57.24;102112.88;11447227;25;20077;-60
2024/04/14 08:20:18;;;;;;;6.40;1.57;;;;;;;18.56;57.54;102113.13;11422582;26;19994;-60
2024/04/14 08:25:19;;;;;;;6.97;1.67;;;;;;;18.56;58.33;102113.13;11421803;26;20267;-60
2024/04/14 08:30:20;;;;;;;6.63;2.00;;;;;;;18.55;57.86;102106.13;11421569;26;20218;-60
2024/04/14 08:35:20;;;;;;;9.82;2.38;;;;;;;18.56;57.54;102118.50;11388697;26;20274;-60
2024/04/14 08:40:20;;;;;;;5.80;1.33;;;;;;;18.55;57.95;102121.44;11421604;26;19994;-60
2024/04/14 08:45:24;;;;;;;6.37;1.70;;;;;;;18.53;58.17;102113.66;11421282;26;20738;-60
2024/04/14 08:50:25;;;;;;;6.50;1.67;;;;;;;18.53;58.08;102123.59;11389688;26;20261;-60
2024/04/14 08:55:26;;;;;;;8.48;1.80;;;;;;;18.53;57.84;102108.28;11423358;26;20520;-60
2024/04/14 09:00:29;;;;;;;3.88;1.33;;;;;;;18.53;57.85;102118.22;11428803;26;20069;-60
2024/04/14 09:05:31;;;;;;;6.70;1.73;;;;;;;18.51;57.87;102118.50;11395328;26;20001;-60
2024/04/14 09:10:31;;;;;;;3.63;1.92;;;;;;;18.50;57.81;102119.56;11428776;26;20074;-60
2024/04/14 09:15:37;;;;;;;7.33;1.57;;;;;;;18.50;57.41;102132.19;11427114;26;19994;-60
2024/04/14 09:20:38;;;;;;;4.95;1.77;;;;;;;18.50;57.20;102132.19;11428969;26;20262;-60
2024/04/14 09:25:38;;;;;;;5.60;1.60;;;;;;;18.49;56.89;102126.00;11463266;25;19993;-60
2024/04/14 09:30:38;;;;;;;4.13;1.40;;;;;;;18.50;57.34;102132.19;11447682;25;20269;-60
2024/04/14 09:35:39;;;;;;;5.67;1.83;;;;;;;18.50;57.52;102129.50;11426728;26;19993;-60
2024/04/14 09:40:39;;;;;;;5.07;1.85;;;;;;;18.49;57.14;102149.38;11427765;26;20226;-60
2024/04/14 09:45:40;;;;;;;5.65;2.10;;;;;;;18.48;56.55;102139.69;11394844;26;20025;-60
2024/04/14 09:50:44;;;;;;;3.60;1.67;;;;;;;18.48;56.51;102143.19;11427563;26;20022;-61
2024/04/14 09:55:44;;;;;;;7.15;2.03;;;;;;;18.49;56.42;102144.00;11427124;25;20406;-61
2024/04/14 10:00:45;;;;;;;10.63;2.30;;;;;;;18.52;57.17;102132.72;11440905;25;20005;-60
2024/04/14 10:05:47;;;;;;;21.40;3.40;;;;;;;18.57;57.11;102141.59;11425405;26;20717;-59
2024/04/14 10:10:52;;;;;;;13.55;2.53;;;;;;;18.60;57.04;102135.75;11426803;26;20001;-59
2024/04/14 10:15:59;;;;;;;19.10;3.47;;;;;;;18.61;57.79;102134.66;11426000;26;20004;-57
2024/04/14 10:21:01;;;;;;;13.13;2.22;;;;;;;18.67;57.36;102141.69;11438086;25;20003;-60
2024/04/14 10:26:01;;;;;;;15.35;3.90;;;;;;;18.72;57.79;102143.63;11418409;25;20010;-58
2024/04/14 10:31:05;;;;;;;18.97;4.07;;;;;;;18.75;57.82;102145.78;11427317;25;20006;-58
2024/04/14 10:36:06;;;;;;;16.92;2.90;;;;;;;18.76;57.46;102139.31;11402865;26;20223;-58
2024/04/14 10:41:06;;;;;;;17.45;3.60;;;;;;;18.78;56.83;102137.19;11390847;26;20900;-57
2024/04/14 10:46:06;;;;;;;27.37;4.47;;;;;;;18.81;56.57;102136.66;11415577;26;20002;-58
2024/04/14 10:51:07;;;;;;;15.80;4.27;;;;;;;18.78;55.37;102122.94;11393298;25;20222;-57
2024/04/14 10:56:07;;;;;;;17.47;3.07;;;;;;;18.77;53.65;102132.88;11463181;25;20287;-58
2024/04/14 11:01:09;;;;;;;21.63;3.67;;;;;;;18.76;52.09;102133.16;11425730;25;20226;-57
2024/04/14 11:06:09;;;;;;;13.45;2.88;;;;;;;18.77;51.87;102114.06;11391579;26;20016;-57
2024/04/14 11:11:10;;;;;;;12.63;2.28;;;;;;;18.81;51.19;102122.41;11423819;26;20005;-58
2024/04/14 11:16:10;;;;;;;9.63;2.10;;;;;;;18.80;51.61;102099.28;11422950;26;20061;-57
2024/04/14 11:21:17;;;;;;;12.77;2.80;;;;;;;18.80;50.50;102094.72;11423395;26;20851;-58
2024/04/14 11:26:18;;;;;;;5.28;1.75;;;;;;;18.85;50.44;102105.50;11423766;26;20262;-58
2024/04/14 11:31:18;;;;;;;7.40;1.67;;;;;;;18.84;50.18;102079.72;11421649;26;20013;-57
2024/04/14 11:36:18;;;;;;;8.10;1.65;;;;;;;18.83;48.82;102083.47;11390578;26;20009;-57
2024/04/14 11:41:19;;;;;;;11.18;1.45;;;;;;;18.86;48.77;102079.44;11423336;26;20021;-58
2024/04/14 11:46:20;;;;;;;4.72;1.60;;;;;;;18.91;48.90;102069.50;11388710;25;20093;-58
2024/04/14 11:51:20;;;;;;;6.18;1.80;;;;;;;18.96;49.27;102082.97;11419985;26;19994;-57
2024/04/14 11:56:20;;;;;;;9.13;1.80;;;;;;;18.97;49.59;102071.16;11421882;26;20045;-58
2024/04/14 12:01:20;;;;;;;2.90;1.33;;;;;;;19.00;49.02;102061.75;11437895;25;20663;-58
2024/04/14 12:06:21;;;;;;;4.37;1.20;;;;;;;19.03;49.60;102055.00;11436899;25;20218;-59
2024/04/14 12:11:21;;;;;;;3.97;0.80;;;;;;;19.05;49.01;102056.34;11472270;25;20346;-58
2024/04/14 12:16:21;;;;;;;5.47;1.63;;;;;;;19.09;49.31;102070.91;11422060;26;20313;-59
2024/04/14 12:21:23;;;;;;;3.43;1.00;;;;;;;19.09;49.26;102056.66;11421379;26;20002;-59
2024/04/14 12:26:24;;;;;;;8.63;1.65;;;;;;;19.10;49.54;102060.97;11422185;26;20290;-58
2024/04/14 12:31:24;;;;;;;3.13;1.00;;;;;;;19.13;49.33;102058.53;11424851;25;19993;-58
2024/04/14 12:36:24;;;;;;;6.83;1.90;;;;;;;19.12;49.31;102053.44;11430214;25;20329;-58
2024/04/14 12:41:25;;;;;;;4.53;1.23;;;;;;;19.20;49.49;102052.91;11427083;26;20214;-58
2024/04/14 12:46:25;;;;;;;6.00;1.37;;;;;;;19.21;49.28;102041.88;11428996;26;20222;-58
2024/04/14 12:51:25;;;;;;;4.50;1.17;;;;;;;19.19;49.70;102041.34;11428015;26;20768;-58
2024/04/14 12:56:26;;;;;;;4.03;1.20;;;;;;;19.14;49.44;102035.16;11428075;26;20274;-59
2024/04/14 13:01:26;;;;;;;5.22;0.93;;;;;;;19.05;48.68;102034.84;11414193;25;20571;-59
2024/04/14 13:06:26;;;;;;;5.87;1.00;;;;;;;18.95;49.05;102022.22;11415700;26;19993;-58
2024/04/14 13:11:28;;;;;;;4.57;1.50;;;;;;;18.93;47.53;102026.22;11427034;26;20736;-58
2024/04/14 13:16:28;;;;;;;5.18;1.45;;;;;;;18.92;48.07;102013.88;11427797;26;20218;-58
2024/04/14 13:21:32;;;;;;;4.63;1.03;;;;;;;18.94;48.03;102004.50;11426773;26;20437;-58
2024/04/14 13:26:33;;;;;;;4.43;1.30;;;;;;;18.94;47.93;102011.72;11426493;26;20234;-58
2024/04/14 13:31:33;;;;;;;3.80;1.15;;;;;;;18.96;47.76;101988.09;11373876;26;20012;-59
2024/04/14 13:36:33;;;;;;;2.70;1.07;;;;;;;18.99;47.77;101977.59;11427044;26;20008;-58
2024/04/14 13:41:34;;;;;;;2.80;0.93;;;;;;;19.03;47.97;101977.06;11482156;25;20012;-59
2024/04/14 13:46:35;;;;;;;4.40;2.25;;;;;;;19.01;47.77;101982.72;11503122;25;20720;-58
2024/04/14 13:51:35;;;;;;;3.90;1.30;;;;;;;19.00;48.54;101970.34;11502922;25;19997;-58
2024/04/14 13:56:35;;;;;;;3.30;0.90;;;;;;;19.06;47.85;101973.81;11470018;25;20253;-57
2024/04/14 14:01:36;;;;;;;3.03;1.13;;;;;;;19.10;48.56;101961.47;11401428;26;19998;-57
2024/04/14 14:06:37;;;;;;;6.40;2.13;;;;;;;19.12;48.23;101962.03;11394354;25;19994;-57
2024/04/14 14:11:38;;;;;;;5.38;0.90;;;;;;;19.13;48.61;101961.75;11392600;26;20006;-56
2024/04/14 14:16:39;;;;;;;2.25;0.88;;;;;;;19.16;48.42;101958.50;11384125;26;20018;-58
2024/04/14 14:21:39;;;;;;;8.03;2.10;;;;;;;19.10;48.41;101956.91;11391895;26;20440;-57
2024/04/14 14:26:39;;;;;;;2.60;1.00;;;;;;;19.09;48.72;101951.81;11424818;26;20285;-58
2024/04/14 14:31:39;;;;;;;2.33;0.90;;;;;;;19.09;48.81;101943.75;11435094;25;20217;-57
2024/04/14 14:36:40;;;;;;;3.70;1.30;;;;;;;19.07;48.93;101929.78;11425195;26;20238;-57
2024/04/14 14:41:40;;;;;;;2.17;1.00;;;;;;;19.08;48.26;101936.75;11394955;26;20461;-57
2024/04/14 14:46:40;;;;;;;3.77;1.23;;;;;;;19.08;48.72;101928.69;11427342;25;20258;-58
2024/04/14 14:51:41;;;;;;;3.47;0.90;;;;;;;19.08;48.33;101929.50;11438562;25;20270;-58
2024/04/14 14:56:41;;;;;;;2.97;1.13;;;;;;;19.07;48.54;101927.09;11424582;26;20709;-57
2024/04/14 15:01:41;;;;;;;3.42;0.90;;;;;;;19.06;48.62;101931.66;11421222;26;20062;-58
2024/04/14 15:06:42;;;;;;;2.43;1.13;;;;;;;19.01;48.97;101920.88;11421602;26;20008;-58
2024/04/14 15:11:42;;;;;;;3.07;1.10;;;;;;;19.02;48.28;101921.69;11417514;26;20284;-57
2024/04/14 15:16:42;;;;;;;5.00;1.23;;;;;;;19.00;48.77;101924.66;11423660;26;20282;-59
2024/04/14 15:21:43;;;;;;;3.77;1.23;;;;;;;18.92;48.42;101912.53;11388838;26;20289;-59
2024/04/14 15:26:43;;;;;;;3.70;1.10;;;;;;;18.88;48.30;101908.78;11423835;26;20230;-59
2024/04/14 15:31:45;;;;;;;2.28;0.98;;;;;;;18.84;48.80;101907.72;11433563;25;20273;-59
2024/04/14 15:36:46;;;;;;;5.38;1.52;;;;;;;18.83;48.28;101894.56;11423911;26;20946;-60
2024/04/14 15:41:46;;;;;;;4.57;1.17;;;;;;;18.82;48.36;101904.47;11395009;25;19996;-59
2024/04/14 15:46:49;;;;;;;4.22;1.50;;;;;;;18.80;47.64;101903.94;11450271;25;20271;-59
2024/04/14 15:51:49;;;;;;;6.00;1.38;;;;;;;18.79;48.29;101901.53;11410646;26;20030;-59
2024/04/14 15:56:49;;;;;;;3.20;1.47;;;;;;;18.78;48.08;101897.22;11442581;25;20478;-60
2024/04/14 16:01:49;;;;;;;6.67;2.00;;;;;;;18.79;49.37;101894.25;11447271;25;20001;-60
2024/04/14 16:06:50;;;;;;;17.45;12.27;;;;;;;18.85;55.00;101895.91;11450342;25;20214;-62
2024/04/14 16:11:50;;;;;;;13.73;9.13;;;;;;;18.92;58.30;101885.66;11421073;26;20005;-61
2024/04/14 16:16:51;;;;;;;8.83;4.97;;;;;;;18.88;54.70;101889.16;11422557;26;20271;-60
2024/04/14 16:21:51;;;;;;;9.90;5.22;;;;;;;18.81;51.42;101873.31;11422240;26;20218;-60
2024/04/14 16:26:52;;;;;;;9.43;3.93;;;;;;;18.95;53.75;101881.66;11422633;26;20775;-58
2024/04/14 16:31:52;;;;;;;10.13;3.70;;;;;;;19.11;53.65;101877.06;11431687;25;20005;-61
2024/04/14 16:36:52;;;;;;;12.97;3.03;;;;;;;19.16;52.59;101863.59;11421879;26;20599;-61
2024/04/14 16:41:53;;;;;;;15.97;5.23;;;;;;;18.98;52.50;101852.34;11442525;25;20349;-59
2024/04/14 16:46:53;;;;;;;7.68;2.85;;;;;;;18.86;51.34;101845.66;11433805;25;20325;-60
2024/04/14 16:51:53;;;;;;;14.90;3.23;;;;;;;18.88;51.96;101836.22;11420422;26;20009;-59
2024/04/14 16:56:53;;;;;;;10.77;3.43;;;;;;;18.96;51.24;101824.94;11421277;26;20222;-59
2024/04/14 17:01:54;;;;;;;11.17;3.77;;;;;;;18.87;51.98;101829.25;11432329;25;20001;-60
2024/04/14 17:06:54;;;;;;;8.60;2.93;;;;;;;18.83;51.68;101820.13;11421295;26;20001;-61
2024/04/14 17:11:54;;;;;;;13.33;3.53;;;;;;;18.85;51.61;101817.97;11419539;26;20226;-61
2024/04/14 17:16:55;;;;;;;11.67;3.43;;;;;;;18.84;51.33;101813.66;11390804;26;19997;-60
2024/04/14 17:21:55;;;;;;;9.17;2.73;;;;;;;18.81;50.99;101806.13;11428053;26;20233;-59
2024/04/14 17:26:55;;;;;;;12.60;3.80;;;;;;;18.81;51.32;101802.63;11427356;26;20309;-60
2024/04/14 17:31:56;;;;;;;6.57;2.63;;;;;;;18.78;50.90;101792.44;11430762;25;21060;-62
2024/04/14 17:36:56;;;;;;;12.37;3.33;;;;;;;18.80;51.63;101774.97;11415012;25;20001;-61
2024/04/14 17:41:56;;;;;;;7.87;2.90;;;;;;;18.78;50.88;101771.75;11394190;26;20331;-61
2024/04/14 17:46:57;;;;;;;10.95;3.03;;;;;;;18.78;50.86;101754.81;11376797;26;20004;-61
2024/04/14 17:51:57;;;;;;;11.65;2.88;;;;;;;18.79;51.34;101751.06;11366439;26;19989;-61
2024/04/14 17:56:57;;;;;;;14.60;3.65;;;;;;;18.76;51.72;101740.84;11390823;26;20009;-62
2024/04/14 18:01:59;;;;;;;6.13;2.20;;;;;;;18.73;51.35;101733.34;11424853;26;20011;-63
2024/04/14 18:07:00;;;;;;;4.80;1.75;;;;;;;18.73;50.76;101733.34;11394178;26;20935;-63
2024/04/14 18:12:00;;;;;;;5.80;1.90;;;;;;;18.72;51.46;101729.06;11392000;26;20009;-62
2024/04/14 18:17:00;;;;;;;7.43;1.88;;;;;;;18.71;50.91;101712.13;11457524;25;20057;-62
2024/04/14 18:22:01;;;;;;;9.20;2.03;;;;;;;18.71;50.99;101717.50;11434104;25;20078;-63
2024/04/14 18:27:01;;;;;;;9.27;2.30;;;;;;;18.74;50.62;101703.50;11412470;25;20272;-58
2024/04/14 18:32:01;;;;;;;9.10;2.50;;;;;;;18.73;50.74;101712.66;11400452;26;20001;-59
2024/04/14 18:37:02;;;;;;;5.93;1.80;;;;;;;18.70;51.44;101700.56;11426533;26;19989;-57
2024/04/14 18:42:02;;;;;;;4.78;1.80;;;;;;;18.72;51.40;101694.13;11408408;25;20292;-61
2024/04/14 18:47:04;;;;;;;5.13;1.70;;;;;;;18.70;51.53;101683.63;11465501;25;20000;-61
2024/04/14 18:52:05;;;;;;;3.40;1.50;;;;;;;18.69;52.08;101674.75;11440150;25;19993;-60
2024/04/14 18:57:06;;;;;;;7.32;1.60;;;;;;;18.73;49.41;101676.94;11463915;25;20012;-61
2024/04/14 19:02:06;;;;;;;6.35;1.90;;;;;;;18.73;49.70;101675.03;11465244;25;20000;-61
2024/04/14 19:07:06;;;;;;;6.00;1.30;;;;;;;18.70;50.61;101671.00;11425015;26;19989;-61
2024/04/14 19:12:08;;;;;;;6.20;2.10;;;;;;;18.68;49.06;101685.78;11424943;25;20253;-62
2024/04/14 19:17:08;;;;;;;6.35;1.52;;;;;;;18.67;50.41;101676.13;11418637;26;20324;-59
2024/04/14 19:22:09;;;;;;;6.50;1.63;;;;;;;18.67;51.43;101682.28;11424937;26;20035;-60
2024/04/14 19:27:09;;;;;;;6.60;1.57;;;;;;;18.65;51.43;101676.41;11412952;25;20260;-60
2024/04/14 19:32:09;;;;;;;3.80;1.13;;;;;;;18.65;51.98;101664.84;11408201;26;21073;-60
2024/04/14 19:37:10;;;;;;;9.07;2.10;;;;;;;18.65;52.44;101664.84;11424197;26;20349;-60
2024/04/14 19:42:10;;;;;;;4.00;0.90;;;;;;;18.64;52.32;101653.31;11423558;26;20218;-61
2024/04/14 19:47:10;;;;;;;2.43;0.93;;;;;;;18.64;52.42;101650.63;11448025;25;20029;-60
2024/04/14 19:52:10;;;;;;;3.13;1.00;;;;;;;18.64;52.74;101644.44;11424352;26;20594;-59
2024/04/14 19:57:11;;;;;;;4.97;1.50;;;;;;;18.64;52.57;101647.94;11423295;25;20301;-59
2024/04/14 20:02:11;;;;;;;2.20;0.83;;;;;;;18.62;52.81;101636.63;11422628;25;20262;-60
2024/04/14 20:07:12;;;;;;;5.78;1.27;;;;;;;18.63;52.04;101626.69;11422840;26;20725;-60
2024/04/14 20:12:12;;;;;;;5.13;1.08;;;;;;;18.62;52.83;101630.44;11423142;26;20037;-60
2024/04/14 20:17:12;;;;;;;6.63;1.23;;;;;;;18.62;52.84;101622.38;11422503;26;20012;-60
2024/04/14 20:22:13;;;;;;;5.70;1.50;;;;;;;18.60;52.77;101603.88;11422678;25;20741;-60
2024/04/14 20:27:13;;;;;;;3.80;0.83;;;;;;;18.60;52.75;101603.88;11428409;25;20221;-60
2024/04/14 20:32:13;;;;;;;3.57;1.17;;;;;;;18.60;52.87;101589.63;11421707;26;20275;-60
2024/04/14 20:37:14;;;;;;;3.93;1.07;;;;;;;18.59;52.75;101591.50;11389059;26;20595;-60
2024/04/14 20:42:15;;;;;;;4.30;1.35;;;;;;;18.59;52.45;101590.72;11464416;25;20217;-58
2024/04/14 20:47:17;;;;;;;4.75;1.40;;;;;;;18.58;52.56;101570.28;11498392;25;19997;-60
2024/04/14 20:52:18;;;;;;;4.55;1.17;;;;;;;18.58;53.01;101568.41;11502855;25;20003;-60
2024/04/14 20:57:18;;;;;;;2.90;1.25;;;;;;;18.56;52.43;101554.44;11501432;25;20016;-60
2024/04/14 21:02:18;;;;;;;2.87;1.00;;;;;;;18.58;53.07;101559.53;11456202;25;20796;-60
2024/04/14 21:07:19;;;;;;;3.20;0.90;;;;;;;18.56;53.21;101554.44;11505334;25;20281;-60
2024/04/14 21:12:19;;;;;;;4.07;1.10;;;;;;;18.56;53.12;101565.19;11464990;25;20307;-60
2024/04/14 21:17:19;;;;;;;3.35;1.00;;;;;;;18.55;53.34;101552.03;11395700;26;20720;-60
2024/04/14 21:22:20;;;;;;;2.87;0.70;;;;;;;18.54;53.16;101540.50;11429244;26;19993;-60
2024/04/14 21:27:21;;;;;;;3.20;1.30;;;;;;;18.53;52.82;101546.94;11427817;26;20226;-60
2024/04/14 21:32:21;;;;;;;4.07;1.45;;;;;;;18.54;52.58;101543.16;11388010;26;20218;-60
2024/04/14 21:37:22;;;;;;;2.08;1.45;;;;;;;18.52;52.34;101534.59;11385509;26;20077;-60
2024/04/14 21:42:22;;;;;;;1.70;1.00;;;;;;;18.51;52.71;101518.75;11427603;26;19994;-61
2024/04/14 21:47:22;;;;;;;3.23;1.20;;;;;;;18.50;52.76;101517.94;11427445;25;20287;-60
2024/04/14 21:52:23;;;;;;;1.80;0.70;;;;;;;18.50;52.90;101512.59;11427519;25;20266;-60
2024/04/14 21:57:23;;;;;;;3.30;1.17;;;;;;;18.50;52.77;101517.94;11371287;25;20318;-60
2024/04/14 22:02:23;;;;;;;4.47;1.20;;;;;;;18.49;52.69;101516.34;11428123;25;20029;-60
2024/04/14 22:07:23;;;;;;;1.67;0.90;;;;;;;18.49;53.07;101520.91;11426314;26;20583;-60
2024/04/14 22:12:24;;;;;;;2.47;1.17;;;;;;;18.48;52.33;101501.31;11394960;26;20258;-60
2024/04/14 22:17:24;;;;;;;3.28;0.82;;;;;;;18.47;52.78;101491.66;11426016;26;20315;-60
2024/04/14 22:22:25;;;;;;;3.50;1.17;;;;;;;18.46;53.03;101468.53;11427151;26;20008;-60
2024/04/14 22:27:25;;;;;;;3.07;1.27;;;;;;;18.45;52.51;101466.94;11425287;26;20855;-60
2024/04/14 22:32:25;;;;;;;2.27;1.13;;;;;;;18.45;52.75;101469.63;11424956;25;20234;-60
2024/04/14 22:37:26;;;;;;;2.03;0.70;;;;;;;18.44;53.14;101465.34;11425663;26;20226;-60
2024/04/14 22:42:26;;;;;;;3.87;1.03;;;;;;;18.43;52.34;101485.22;11471390;25;20553;-60
2024/04/14 22:47:27;;;;;;;2.80;0.97;;;;;;;18.42;53.36;101473.66;11478054;25;20009;-60
2024/04/14 22:52:28;;;;;;;2.83;0.63;;;;;;;18.42;52.49;101460.25;11359710;26;20709;-60
2024/04/14 22:57:28;;;;;;;4.57;1.25;;;;;;;18.41;52.69;101464.00;11488313;25;19993;-60